Time;durP1;ratioP1;P1;durP2;ratioP2;P2;SDS_P1;SDS_P2;PMS_P1;PMS_P2;Temp;Humidity;BMP_temperature;BMP_pressure;BME280_temperature;BME280_humidity;BME280_pressure;Samples;Min_cycle;Max_cycle;Signal;HPM_P1;HPM_P2
2023/09/12 00:02:26;;;;;;;1.47;0.90;;;22.20;98.20;;;;;;4938372;28;20499;-81
2023/09/12 00:04:54;;;;;;;1.50;0.90;;;22.20;98.20;;;;;;4939863;28;20467;-80
2023/09/12 00:07:21;;;;;;;1.47;0.90;;;22.10;98.20;;;;;;4936262;28;20486;-81
2023/09/12 00:09:47;;;;;;;1.50;0.90;;;22.00;98.20;;;;;;4948557;28;20474;-81
2023/09/12 00:12:15;;;;;;;1.50;0.90;;;22.00;98.20;;;;;;4937628;28;20490;-81
2023/09/12 00:14:42;;;;;;;1.50;0.90;;;21.90;98.20;;;;;;4948784;28;20579;-81
2023/09/12 00:17:10;;;;;;;1.50;0.90;;;21.90;98.20;;;;;;4933312;28;20495;-80
2023/09/12 00:19:36;;;;;;;1.50;0.90;;;21.90;98.20;;;;;;4941122;28;20479;-81
2023/09/12 00:22:04;;;;;;;1.47;0.90;;;21.90;98.20;;;;;;4934072;28;20489;-79
2023/09/12 00:24:31;;;;;;;1.50;0.90;;;21.80;98.20;;;;;;4942064;28;20470;-80
2023/09/12 00:26:58;;;;;;;1.50;0.90;;;21.90;98.20;;;;;;4933185;28;20522;-80
2023/09/12 00:29:24;;;;;;;1.50;0.90;;;21.90;98.20;;;;;;4947904;28;20690;-81
2023/09/12 00:31:51;;;;;;;1.50;1.10;;;21.90;98.20;;;;;;4938755;28;20486;-81
2023/09/12 00:34:18;;;;;;;1.47;0.90;;;21.90;98.20;;;;;;4942015;28;20490;-81
2023/09/12 00:36:45;;;;;;;1.50;0.90;;;21.80;98.20;;;;;;4934746;28;20639;-80
2023/09/12 00:39:13;;;;;;;1.47;0.90;;;21.80;98.20;;;;;;4945475;28;20969;-80
2023/09/12 00:41:40;;;;;;;1.50;0.90;;;21.80;98.20;;;;;;4929900;28;20483;-79
2023/09/12 00:44:07;;;;;;;1.50;0.90;;;21.70;98.20;;;;;;4933445;28;20844;-80
2023/09/12 00:46:35;;;;;;;1.67;1.30;;;21.70;98.20;;;;;;4932263;28;20494;-81
2023/09/12 00:49:03;;;;;;;1.50;0.90;;;21.70;98.20;;;;;;4934465;28;20463;-80
2023/09/12 00:51:32;;;;;;;1.50;0.90;;;21.70;98.20;;;;;;4932565;28;20476;-81
2023/09/12 00:53:59;;;;;;;1.50;0.90;;;21.70;98.20;;;;;;4941172;28;20466;-81
2023/09/12 00:56:27;;;;;;;1.50;0.90;;;21.70;98.20;;;;;;4932815;28;20474;-81
2023/09/12 00:58:55;;;;;;;1.50;0.90;;;21.70;98.20;;;;;;4947015;29;20478;-80
2023/09/12 01:01:22;;;;;;;1.50;0.90;;;21.70;98.20;;;;;;4937146;28;20491;-80
2023/09/12 01:03:49;;;;;;;1.50;0.90;;;21.70;98.20;;;;;;4947347;28;20970;-81
2023/09/12 01:06:19;;;;;;;1.50;0.90;;;21.80;98.20;;;;;;4936956;28;20864;-80
2023/09/12 01:08:46;;;;;;;1.50;1.00;;;21.80;98.20;;;;;;4947355;28;20495;-80
2023/09/12 01:11:13;;;;;;;1.50;0.90;;;21.80;98.20;;;;;;4934235;28;20494;-81
2023/09/12 01:13:41;;;;;;;1.47;0.90;;;21.80;98.20;;;;;;4948698;28;20462;-80
2023/09/12 01:16:08;;;;;;;1.50;0.90;;;21.80;98.20;;;;;;4932691;28;20487;-80
2023/09/12 01:18:35;;;;;;;1.50;0.90;;;21.70;98.20;;;;;;4945668;28;20489;-80
2023/09/12 01:21:42;;;;;;;1.50;1.00;;;21.70;98.20;;;;;;4932686;28;20877;-79
2023/09/12 01:24:30;;;;;;;1.50;0.97;;;21.70;98.20;;;;;;4864900;29;20462;-80
2023/09/12 01:27:05;;;;;;;1.47;0.90;;;21.60;98.20;;;;;;4922498;28;20911;-79
2023/09/12 01:29:34;;;;;;;1.50;1.00;;;21.60;98.20;;;;;;4932121;29;20470;-79
2023/09/12 01:32:02;;;;;;;1.50;0.90;;;21.50;98.20;;;;;;4940035;28;21016;-79
2023/09/12 01:34:29;;;;;;;1.50;0.90;;;21.50;98.20;;;;;;4945594;28;20855;-79
2023/09/12 01:36:55;;;;;;;1.50;0.90;;;21.50;98.20;;;;;;4941708;28;20486;-79
2023/09/12 01:39:22;;;;;;;1.43;0.90;;;21.50;98.20;;;;;;4950346;28;20470;-79
2023/09/12 01:41:50;;;;;;;1.50;0.90;;;21.50;98.20;;;;;;4929714;29;20492;-78
2023/09/12 01:44:18;;;;;;;1.50;0.90;;;21.50;98.20;;;;;;4937351;29;20540;-80
2023/09/12 01:46:49;;;;;;;1.50;0.90;;;21.50;98.20;;;;;;4934475;29;20867;-79
2023/09/12 01:49:18;;;;;;;1.47;0.90;;;21.50;98.20;;;;;;4940205;29;20501;-80
2023/09/12 01:51:45;;;;;;;1.50;0.90;;;21.50;98.20;;;;;;4929627;29;20495;-80
2023/09/12 01:54:12;;;;;;;1.50;0.90;;;21.50;98.20;;;;;;4944207;29;20462;-80
2023/09/12 01:56:40;;;;;;;1.50;0.90;;;21.50;98.20;;;;;;4933669;29;20482;-79
2023/09/12 01:59:07;;;;;;;1.50;0.90;;;21.40;98.20;;;;;;4946606;29;20455;-79
2023/09/12 02:01:34;;;;;;;1.47;0.97;;;21.40;98.20;;;;;;4938138;28;20507;-79
2023/09/12 02:04:02;;;;;;;1.50;0.90;;;21.40;98.20;;;;;;4948114;29;20470;-80
2023/09/12 02:06:28;;;;;;;1.47;0.90;;;21.40;98.20;;;;;;4938339;28;20973;-79
2023/09/12 02:08:55;;;;;;;1.43;0.90;;;21.40;98.20;;;;;;4945659;28;20479;-80
2023/09/12 02:11:22;;;;;;;1.50;0.90;;;21.40;98.20;;;;;;4938615;28;20466;-79
2023/09/12 02:13:48;;;;;;;1.50;0.90;;;21.40;98.20;;;;;;4948881;28;20463;-79
2023/09/12 02:16:15;;;;;;;1.47;0.90;;;21.30;98.20;;;;;;4936446;28;20474;-79
2023/09/12 02:18:42;;;;;;;1.47;0.90;;;21.30;98.20;;;;;;4947603;28;20463;-79
2023/09/12 02:21:10;;;;;;;1.50;1.00;;;21.30;98.20;;;;;;4935755;29;20491;-79
2023/09/12 02:23:37;;;;;;;1.50;0.90;;;21.30;98.20;;;;;;4943487;29;20795;-79
2023/09/12 02:26:03;;;;;;;1.50;0.90;;;21.30;98.20;;;;;;4939333;28;20471;-80
2023/09/12 02:28:30;;;;;;;1.50;0.90;;;21.20;98.20;;;;;;4949121;28;20479;-80
2023/09/12 02:30:57;;;;;;;1.50;0.90;;;21.20;98.20;;;;;;4940753;29;20774;-80
2023/09/12 02:33:23;;;;;;;1.50;1.00;;;21.20;98.20;;;;;;4936479;29;20946;-80
2023/09/12 02:35:50;;;;;;;1.50;1.00;;;21.20;98.20;;;;;;4944414;29;20470;-82
2023/09/12 02:38:19;;;;;;;1.50;0.90;;;21.30;98.20;;;;;;4944810;29;20494;-81
2023/09/12 02:40:45;;;;;;;1.50;0.90;;;21.20;98.20;;;;;;4945448;29;20907;-79
2023/09/12 02:43:12;;;;;;;1.50;0.90;;;21.30;98.20;;;;;;4914081;29;20486;-79
2023/09/12 02:45:39;;;;;;;1.50;0.90;;;21.20;98.20;;;;;;4950950;29;20463;-80
2023/09/12 02:48:06;;;;;;;1.60;1.37;;;21.20;98.20;;;;;;4935059;28;20478;-79
2023/09/12 02:50:32;;;;;;;1.50;0.90;;;21.20;98.20;;;;;;4951886;29;20869;-80
2023/09/12 02:52:59;;;;;;;1.50;0.90;;;21.20;98.20;;;;;;4937261;29;20497;-80
2023/09/12 02:55:27;;;;;;;1.47;0.90;;;21.20;98.20;;;;;;4949051;29;20852;-80
2023/09/12 02:57:54;;;;;;;1.47;0.90;;;21.20;98.20;;;;;;4934717;29;20491;-80
2023/09/12 03:00:21;;;;;;;1.50;0.90;;;21.20;98.20;;;;;;4945056;29;20462;-80
2023/09/12 03:02:48;;;;;;;1.50;0.90;;;21.20;98.20;;;;;;4932591;29;20577;-79
2023/09/12 03:05:15;;;;;;;2.00;1.67;;;21.20;98.20;;;;;;4943958;29;20463;-80
2023/09/12 03:07:41;;;;;;;1.50;1.00;;;21.20;98.20;;;;;;4940375;29;20482;-80
2023/09/12 03:10:09;;;;;;;1.50;1.00;;;21.20;98.20;;;;;;4946760;29;20468;-80
2023/09/12 03:12:38;;;;;;;1.50;0.90;;;21.20;98.20;;;;;;4937412;29;20519;-79
2023/09/12 03:15:05;;;;;;;1.50;0.90;;;21.20;98.20;;;;;;4949029;29;20566;-79
2023/09/12 03:17:33;;;;;;;1.50;0.90;;;21.20;98.20;;;;;;4929367;29;20727;-79
2023/09/12 03:20:00;;;;;;;1.50;0.90;;;21.20;98.20;;;;;;4946341;29;20459;-79
2023/09/12 03:22:26;;;;;;;1.43;0.90;;;21.20;98.20;;;;;;4928420;29;20511;-80
2023/09/12 03:24:53;;;;;;;1.50;0.90;;;21.20;98.20;;;;;;4946251;29;20538;-80
2023/09/12 03:27:20;;;;;;;1.50;0.90;;;21.20;98.20;;;;;;4940101;28;20486;-81
2023/09/12 03:29:49;;;;;;;1.47;0.90;;;21.20;98.20;;;;;;4952180;28;20475;-80
2023/09/12 03:32:15;;;;;;;1.50;0.90;;;21.10;98.20;;;;;;4943017;28;20489;-80
2023/09/12 03:34:42;;;;;;;1.50;0.90;;;21.20;98.20;;;;;;4949191;28;20470;-81
2023/09/12 03:37:09;;;;;;;1.50;0.90;;;21.20;98.20;;;;;;4941407;28;20501;-80
2023/09/12 03:39:36;;;;;;;1.50;0.90;;;21.20;98.20;;;;;;4948375;28;20463;-80
2023/09/12 03:42:03;;;;;;;1.43;0.90;;;21.20;98.20;;;;;;4942040;28;20483;-80
2023/09/12 03:44:30;;;;;;;1.60;1.10;;;21.20;98.20;;;;;;4947771;28;20857;-80
2023/09/12 03:46:58;;;;;;;1.50;0.90;;;21.20;98.20;;;;;;4932591;28;20502;-79
2023/09/12 03:49:25;;;;;;;1.50;0.90;;;21.20;98.20;;;;;;4937957;28;20463;-79
2023/09/12 03:51:52;;;;;;;1.43;0.90;;;21.20;98.20;;;;;;4938004;28;20491;-81
2023/09/12 03:54:19;;;;;;;1.50;0.90;;;21.20;98.20;;;;;;4944324;28;20478;-81
2023/09/12 03:56:46;;;;;;;1.47;0.90;;;21.30;98.20;;;;;;4935264;28;20491;-80
2023/09/12 03:59:12;;;;;;;1.47;0.90;;;21.30;98.20;;;;;;4950637;28;20477;-80
2023/09/12 04:01:39;;;;;;;1.47;0.87;;;21.30;98.20;;;;;;4941662;28;20578;-81
2023/09/12 04:04:07;;;;;;;1.50;0.90;;;21.30;98.20;;;;;;4948417;28;20554;-82
2023/09/12 04:06:34;;;;;;;1.47;0.90;;;21.30;98.20;;;;;;4933454;29;20954;-82
2023/09/12 04:09:01;;;;;;;1.47;0.90;;;21.30;98.20;;;;;;4938957;28;20502;-81
2023/09/12 04:11:27;;;;;;;1.50;0.90;;;21.30;98.20;;;;;;4935310;29;20856;-81
2023/09/12 04:13:54;;;;;;;1.50;0.90;;;21.30;98.20;;;;;;4938063;28;20962;-82
2023/09/12 04:16:21;;;;;;;1.47;0.90;;;21.30;98.20;;;;;;4933687;28;20488;-81
2023/09/12 04:18:48;;;;;;;1.47;0.90;;;21.30;98.20;;;;;;4942228;28;20474;-81
2023/09/12 04:21:16;;;;;;;1.50;0.90;;;21.30;98.20;;;;;;4931538;28;20621;-80
2023/09/12 04:23:42;;;;;;;1.47;0.90;;;21.30;98.20;;;;;;4944054;28;20464;-81
2023/09/12 04:26:10;;;;;;;1.50;0.90;;;21.30;98.20;;;;;;4936183;28;20483;-81
2023/09/12 04:28:36;;;;;;;1.50;0.90;;;21.30;98.20;;;;;;4940833;28;20479;-81
2023/09/12 04:31:04;;;;;;;1.47;0.90;;;21.30;98.20;;;;;;4933649;28;20953;-81
2023/09/12 04:33:30;;;;;;;1.50;0.90;;;21.40;98.20;;;;;;4939849;28;20491;-80
2023/09/12 04:35:59;;;;;;;1.43;0.90;;;21.40;98.20;;;;;;4942502;28;20462;-81
2023/09/12 04:38:28;;;;;;;1.47;1.00;;;21.40;98.20;;;;;;4944243;29;20482;-81
2023/09/12 04:40:55;;;;;;;1.47;0.90;;;21.50;98.20;;;;;;4931362;28;21009;-81
2023/09/12 04:43:22;;;;;;;1.50;0.90;;;21.50;98.20;;;;;;4949660;28;20471;-80
2023/09/12 04:45:49;;;;;;;1.60;1.30;;;21.50;98.20;;;;;;4938747;28;20472;-84
2023/09/12 04:48:16;;;;;;;1.47;0.90;;;21.40;98.20;;;;;;4936465;29;20491;-82
2023/09/12 04:50:43;;;;;;;1.50;0.90;;;21.40;98.20;;;;;;4949036;28;20468;-80
2023/09/12 04:53:10;;;;;;;1.50;0.93;;;21.30;98.20;;;;;;4942570;28;20490;-82
2023/09/12 04:55:38;;;;;;;1.47;0.90;;;21.40;98.20;;;;;;4951660;28;20605;-82
2023/09/12 04:58:06;;;;;;;1.50;0.90;;;21.40;98.20;;;;;;4943635;28;20498;-81
2023/09/12 05:00:33;;;;;;;1.50;0.90;;;21.40;98.20;;;;;;4948495;28;20466;-80
2023/09/12 05:03:02;;;;;;;1.50;0.90;;;21.30;98.20;;;;;;4940790;28;20566;-79
2023/09/12 05:05:28;;;;;;;1.47;0.90;;;21.30;98.20;;;;;;4947502;28;20471;-81
2023/09/12 05:07:55;;;;;;;1.43;0.90;;;21.30;98.20;;;;;;4937336;28;20501;-79
2023/09/12 05:10:22;;;;;;;1.50;0.90;;;21.30;98.20;;;;;;4944056;28;20670;-80
2023/09/12 05:12:50;;;;;;;1.40;0.90;;;21.30;98.20;;;;;;4942771;28;20570;-80
2023/09/12 05:15:17;;;;;;;1.47;0.90;;;21.30;98.20;;;;;;4943335;28;20950;-79
2023/09/12 05:17:44;;;;;;;1.47;1.00;;;21.30;98.20;;;;;;4940186;28;20482;-79
2023/09/12 05:20:11;;;;;;;1.40;0.90;;;21.30;98.20;;;;;;4944253;28;20478;-78
2023/09/12 05:22:38;;;;;;;1.50;0.90;;;21.30;98.20;;;;;;4944010;28;20483;-77
2023/09/12 05:25:05;;;;;;;1.50;0.97;;;21.30;98.20;;;;;;4945663;28;20455;-79
2023/09/12 05:27:32;;;;;;;1.43;0.90;;;21.30;98.20;;;;;;4940971;28;20773;-79
2023/09/12 05:30:00;;;;;;;1.47;0.90;;;21.30;98.20;;;;;;4940277;28;20482;-80
2023/09/12 05:32:27;;;;;;;1.43;0.90;;;21.30;98.20;;;;;;4925370;29;20517;-80
2023/09/12 05:34:54;;;;;;;1.43;0.90;;;21.30;98.20;;;;;;4944516;28;20555;-80
2023/09/12 05:37:21;;;;;;;1.43;0.90;;;21.30;98.20;;;;;;4927836;28;20510;-83
2023/09/12 05:39:47;;;;;;;1.47;0.90;;;21.30;98.20;;;;;;4942170;28;20482;-81
2023/09/12 05:42:14;;;;;;;1.50;0.90;;;21.30;98.20;;;;;;4937766;28;20483;-81
2023/09/12 05:44:42;;;;;;;1.47;0.90;;;21.30;98.20;;;;;;4949969;29;20467;-82
2023/09/12 05:47:10;;;;;;;1.50;0.90;;;21.30;98.20;;;;;;4932619;28;20550;-81
2023/09/12 05:49:37;;;;;;;1.50;0.90;;;21.30;98.20;;;;;;4942153;28;20601;-78
2023/09/12 05:52:04;;;;;;;3.63;1.93;;;21.30;98.20;;;;;;4943214;28;20479;-79
2023/09/12 05:54:31;;;;;;;1.50;0.90;;;21.30;98.20;;;;;;4953298;28;20467;-82
2023/09/12 05:56:58;;;;;;;1.50;1.00;;;21.20;98.20;;;;;;4946779;28;20560;-78
2023/09/12 05:59:24;;;;;;;1.50;0.90;;;21.10;98.20;;;;;;4955173;28;21033;-79
2023/09/12 06:01:52;;;;;;;1.50;0.90;;;21.10;98.20;;;;;;4945578;28;20481;-81
2023/09/12 06:04:20;;;;;;;1.50;0.90;;;21.10;98.20;;;;;;4954137;28;20499;-81
2023/09/12 06:06:47;;;;;;;1.47;0.90;;;21.10;98.20;;;;;;4941433;28;20486;-81
2023/09/12 06:09:14;;;;;;;1.50;1.00;;;21.10;98.20;;;;;;4957716;28;20479;-78
2023/09/12 06:11:41;;;;;;;1.50;0.90;;;21.10;98.20;;;;;;4940483;28;20478;-79
2023/09/12 06:14:08;;;;;;;2.37;1.03;;;21.10;98.20;;;;;;4952687;28;20830;-80
2023/09/12 06:16:34;;;;;;;1.50;0.90;;;21.20;98.20;;;;;;4947690;28;20495;-79
2023/09/12 06:19:01;;;;;;;1.73;1.37;;;21.30;98.20;;;;;;4956130;28;20471;-80
2023/09/12 06:21:29;;;;;;;1.50;0.97;;;21.40;98.20;;;;;;4941938;28;20567;-79
2023/09/12 06:24:10;;;;;;;1.43;0.90;;;21.50;98.20;;;;;;4953803;28;20867;-79
2023/09/12 06:26:36;;;;;;;1.50;0.90;;;21.50;98.20;;;;;;4939139;28;20564;-79
2023/09/12 06:29:03;;;;;;;1.50;0.90;;;21.60;98.20;;;;;;4951946;28;20477;-79
2023/09/12 06:31:30;;;;;;;1.50;0.90;;;21.60;98.20;;;;;;4944037;28;20479;-79
2023/09/12 06:33:57;;;;;;;1.47;0.87;;;21.60;98.20;;;;;;4950827;28;20566;-79
2023/09/12 06:36:24;;;;;;;1.50;0.90;;;21.70;98.20;;;;;;4938829;28;20613;-79
2023/09/12 06:38:53;;;;;;;1.50;0.90;;;21.80;98.20;;;;;;4940239;28;21121;-79
2023/09/12 06:41:20;;;;;;;1.50;0.90;;;21.80;98.20;;;;;;4941540;28;20984;-79
2023/09/12 06:43:47;;;;;;;1.50;0.90;;;21.90;98.20;;;;;;4955669;28;20638;-77
2023/09/12 06:46:14;;;;;;;1.50;0.90;;;22.10;98.20;;;;;;4947730;28;20896;-79
2023/09/12 06:48:41;;;;;;;1.50;0.90;;;22.10;98.20;;;;;;4953536;28;20471;-79
2023/09/12 06:51:09;;;;;;;2.00;1.33;;;22.10;98.20;;;;;;4939904;28;20484;-79
2023/09/12 06:53:36;;;;;;;1.47;0.90;;;22.20;98.20;;;;;;4951466;28;20474;-79
2023/09/12 06:56:05;;;;;;;1.50;0.90;;;22.20;98.20;;;;;;4950359;28;20472;-79
2023/09/12 06:58:32;;;;;;;1.50;0.90;;;22.20;98.20;;;;;;4953078;28;20590;-81
2023/09/12 07:01:03;;;;;;;1.50;0.90;;;22.20;98.20;;;;;;4938331;28;20467;-79
2023/09/12 07:03:30;;;;;;;1.60;1.20;;;22.30;98.20;;;;;;4934034;28;20491;-80
2023/09/12 07:05:57;;;;;;;1.50;0.90;;;22.30;98.20;;;;;;4941178;28;20474;-79
2023/09/12 07:08:24;;;;;;;1.50;0.90;;;22.30;98.20;;;;;;4954725;28;20530;-80
2023/09/12 07:10:51;;;;;;;1.50;0.90;;;22.30;98.20;;;;;;4945082;28;20462;-79
2023/09/12 07:13:19;;;;;;;1.47;0.80;;;22.30;98.20;;;;;;4951674;28;20458;-79
2023/09/12 07:15:45;;;;;;;1.50;0.90;;;22.30;98.20;;;;;;4956289;28;20980;-79
2023/09/12 07:18:12;;;;;;;1.50;0.90;;;22.40;98.20;;;;;;4941070;28;20494;-79
2023/09/12 07:20:39;;;;;;;1.50;0.90;;;22.50;98.20;;;;;;4956253;28;20470;-79
2023/09/12 07:23:06;;;;;;;1.50;0.90;;;22.50;98.20;;;;;;4937979;28;20536;-79
2023/09/12 07:25:38;;;;;;;1.47;0.90;;;22.50;98.20;;;;;;4947783;28;20474;-79
2023/09/12 07:28:05;;;;;;;1.50;0.90;;;22.50;98.20;;;;;;4945454;28;20590;-79
2023/09/12 07:30:33;;;;;;;1.70;1.43;;;22.50;98.20;;;;;;4950214;28;20462;-79
2023/09/12 07:33:00;;;;;;;1.50;0.90;;;22.60;98.20;;;;;;4933391;29;21093;-79
2023/09/12 07:35:27;;;;;;;1.50;0.90;;;22.70;98.20;;;;;;4949103;28;20481;-80
2023/09/12 07:37:53;;;;;;;1.50;0.90;;;22.80;98.20;;;;;;4949845;28;20541;-80
2023/09/12 07:40:20;;;;;;;1.80;1.20;;;22.90;98.20;;;;;;4950877;28;20474;-80
2023/09/12 07:42:47;;;;;;;1.50;0.90;;;23.10;98.20;;;;;;4944317;28;20561;-80
2023/09/12 07:45:14;;;;;;;1.50;0.90;;;23.40;98.20;;;;;;4959504;28;20459;-80
2023/09/12 07:47:42;;;;;;;1.50;0.90;;;23.60;98.20;;;;;;4940139;28;20493;-80
2023/09/12 07:50:09;;;;;;;1.50;0.90;;;23.80;98.20;;;;;;4949233;28;20566;-81
2023/09/12 07:52:36;;;;;;;1.60;1.20;;;24.10;98.20;;;;;;4940186;28;21064;-82
2023/09/12 07:55:04;;;;;;;1.50;0.90;;;24.30;98.20;;;;;;4953519;28;20465;-82
2023/09/12 07:57:31;;;;;;;1.50;0.90;;;24.50;98.20;;;;;;4940223;28;20543;-81
2023/09/12 07:59:58;;;;;;;1.50;0.90;;;24.70;98.20;;;;;;4952920;28;20908;-82
2023/09/12 08:02:25;;;;;;;1.50;0.90;;;24.70;98.20;;;;;;4945285;28;20679;-81
2023/09/12 08:04:53;;;;;;;1.50;0.90;;;24.80;98.20;;;;;;4952232;28;20470;-81
2023/09/12 08:07:20;;;;;;;1.50;1.00;;;24.90;98.20;;;;;;4935889;28;20487;-81
2023/09/12 08:09:52;;;;;;;1.50;0.87;;;25.00;98.20;;;;;;4945596;28;21017;-81
2023/09/12 08:12:20;;;;;;;1.47;0.90;;;25.00;98.20;;;;;;4945027;28;20622;-81
2023/09/12 08:14:47;;;;;;;1.47;0.80;;;25.10;98.20;;;;;;4968040;28;20839;-81
2023/09/12 08:17:14;;;;;;;1.50;0.80;;;25.00;98.20;;;;;;4943289;28;20490;-82
2023/09/12 08:19:41;;;;;;;1.50;0.90;;;25.00;98.20;;;;;;4952729;28;20467;-82
2023/09/12 08:22:11;;;;;;;1.50;0.90;;;25.00;98.20;;;;;;4945802;28;21024;-80
2023/09/12 08:24:38;;;;;;;1.50;0.87;;;25.00;98.20;;;;;;4947369;28;20834;-81
2023/09/12 08:27:06;;;;;;;1.50;0.87;;;25.10;98.20;;;;;;4943261;28;20549;-81
2023/09/12 08:29:34;;;;;;;1.47;0.80;;;25.20;98.20;;;;;;4947571;28;20474;-81
2023/09/12 08:32:01;;;;;;;1.50;0.90;;;25.20;98.20;;;;;;4937611;28;20493;-80
2023/09/12 08:34:28;;;;;;;1.50;0.90;;;25.30;98.20;;;;;;4948437;28;20730;-80
2023/09/12 08:36:55;;;;;;;1.50;0.90;;;25.20;98.20;;;;;;4940065;28;20482;-79
2023/09/12 08:39:27;;;;;;;1.50;0.83;;;25.30;98.20;;;;;;4951976;28;20466;-80
2023/09/12 08:41:54;;;;;;;1.47;0.87;;;25.40;98.20;;;;;;4948904;28;20496;-79
2023/09/12 08:44:22;;;;;;;1.50;0.90;;;25.50;98.20;;;;;;4950982;28;20483;-78
2023/09/12 08:46:49;;;;;;;1.47;0.80;;;25.70;98.20;;;;;;4941505;28;20502;-82
2023/09/12 08:49:16;;;;;;;1.50;0.90;;;25.80;98.20;;;;;;4949195;28;20466;-79
2023/09/12 08:51:44;;;;;;;1.50;0.90;;;26.00;98.20;;;;;;4936856;28;20479;-80
2023/09/12 08:54:11;;;;;;;1.47;0.90;;;26.10;98.20;;;;;;4947968;28;20466;-80
2023/09/12 08:56:42;;;;;;;1.50;0.90;;;26.20;98.20;;;;;;4942144;28;20693;-80
2023/09/12 08:59:10;;;;;;;1.47;0.80;;;26.40;98.20;;;;;;4950345;28;21044;-79
2023/09/12 09:01:38;;;;;;;1.77;1.13;;;26.50;98.20;;;;;;4935338;28;20616;-81
2023/09/12 09:04:05;;;;;;;1.50;0.90;;;26.70;98.20;;;;;;4946368;28;20482;-80
2023/09/12 09:06:37;;;;;;;1.50;0.80;;;26.70;98.20;;;;;;4944955;28;20490;-79
2023/09/12 09:09:05;;;;;;;1.80;1.00;;;26.80;98.20;;;;;;4952447;28;20597;-80
2023/09/12 09:11:32;;;;;;;1.50;0.90;;;26.80;98.20;;;;;;4936318;28;20517;-80
2023/09/12 09:14:00;;;;;;;1.50;0.83;;;26.90;98.20;;;;;;4945983;28;20465;-80
2023/09/12 09:16:27;;;;;;;7.20;2.43;;;26.90;98.20;;;;;;4940642;28;20475;-80
2023/09/12 09:18:55;;;;;;;3.40;3.10;;;26.80;98.20;;;;;;4952721;28;20458;-79
2023/09/12 09:21:24;;;;;;;1.50;0.90;;;26.80;98.20;;;;;;4940899;28;20486;-81
2023/09/12 09:23:54;;;;;;;1.50;0.90;;;26.70;98.20;;;;;;4949858;28;20489;-80
2023/09/12 09:26:20;;;;;;;1.40;0.80;;;26.60;98.20;;;;;;4941319;28;20607;-80
2023/09/12 09:29:06;;;;;;;2.27;1.87;;;26.60;98.20;;;;;;4949349;28;20471;-80
2023/09/12 09:31:34;;;;;;;1.43;0.90;;;26.60;98.00;;;;;;4952756;28;20481;-81
2023/09/12 09:34:02;;;;;;;1.50;0.80;;;26.60;97.70;;;;;;4955879;28;20459;-80
2023/09/12 09:36:30;;;;;;;1.47;0.90;;;26.50;98.20;;;;;;4929111;28;20501;-79
2023/09/12 09:38:59;;;;;;;1.50;0.90;;;26.50;98.20;;;;;;4937921;28;20969;-80
2023/09/12 09:41:27;;;;;;;1.50;0.90;;;26.70;97.80;;;;;;4926966;28;20501;-78
2023/09/12 09:44:26;;;;;;;1.40;0.80;;;26.90;98.20;;;;;;4935484;28;20501;-80
2023/09/12 09:46:56;;;;;;;1.47;0.83;;;27.00;96.00;;;;;;4918226;28;20601;-80
2023/09/12 09:51:59;;;;;;;1.43;0.80;;;27.50;94.80;;;;;;5116864;23;20603;-78
2023/09/12 09:54:26;;;;;;;1.50;0.90;;;27.70;94.50;;;;;;4961759;28;21015;-77
2023/09/12 09:56:55;;;;;;;1.50;0.80;;;27.80;94.90;;;;;;4948911;28;20483;-78
2023/09/12 09:59:25;;;;;;;1.50;0.80;;;27.90;94.20;;;;;;4960523;28;20462;-78
2023/09/12 10:02:22;;;;;;;1.50;0.80;;;28.10;93.00;;;;;;4947413;28;20497;-78
2023/09/12 10:04:50;;;;;;;1.50;0.90;;;28.10;93.00;;;;;;4955193;28;20497;-78
2023/09/12 10:07:18;;;;;;;1.43;0.80;;;28.20;93.80;;;;;;4957247;23;20484;-83
2023/09/12 10:09:45;;;;;;;1.50;0.80;;;28.10;92.00;;;;;;4960430;28;20529;-79
2023/09/12 10:12:13;;;;;;;1.50;0.80;;;28.30;92.60;;;;;;4949046;28;20517;-80
2023/09/12 10:14:43;;;;;;;1.50;0.80;;;28.30;93.20;;;;;;4958816;28;20458;-79
2023/09/12 10:17:16;;;;;;;1.50;0.80;;;28.40;91.00;;;;;;4946395;28;20493;-79
2023/09/12 10:19:50;;;;;;;1.47;0.80;;;28.50;91.70;;;;;;4957224;28;20462;-79
2023/09/12 10:22:22;;;;;;;1.50;0.80;;;28.50;91.40;;;;;;4947676;28;20481;-80
2023/09/12 10:24:50;;;;;;;1.47;0.80;;;28.70;90.70;;;;;;4965457;28;20584;-78
2023/09/12 10:27:19;;;;;;;1.47;0.87;;;28.80;90.50;;;;;;4946858;28;21177;-80
2023/09/12 10:29:49;;;;;;;1.50;0.80;;;28.90;89.70;;;;;;4960567;28;20476;-78
2023/09/12 10:32:19;;;;;;;1.50;0.90;;;29.00;89.70;;;;;;4940069;28;20874;-80
2023/09/12 10:34:49;;;;;;;1.47;0.90;;;29.10;90.80;;;;;;4962804;28;20468;-78
2023/09/12 10:37:17;;;;;;;1.47;0.80;;;29.10;90.20;;;;;;4948628;28;20481;-78
2023/09/12 10:39:45;;;;;;;1.47;0.80;;;29.00;90.00;;;;;;4962882;28;20470;-78
2023/09/12 10:42:12;;;;;;;1.47;0.80;;;28.90;90.60;;;;;;4952259;28;20477;-78
2023/09/12 10:44:39;;;;;;;1.47;0.80;;;28.80;90.20;;;;;;4969127;28;20636;-79
2023/09/12 10:47:08;;;;;;;1.43;0.80;;;28.70;90.30;;;;;;4954391;28;20588;-81
2023/09/12 10:49:35;;;;;;;1.47;0.80;;;28.60;91.70;;;;;;4964305;28;20468;-79
2023/09/12 10:52:03;;;;;;;1.43;0.80;;;28.60;91.80;;;;;;4958328;28;20485;-79
2023/09/12 10:54:38;;;;;;;1.50;0.80;;;28.70;91.40;;;;;;4963339;28;20463;-79
2023/09/12 10:57:06;;;;;;;1.50;0.90;;;28.80;91.10;;;;;;4960438;28;20933;-78
2023/09/12 10:59:35;;;;;;;1.47;0.80;;;28.80;91.40;;;;;;4948418;28;20470;-80
2023/09/12 11:02:31;;;;;;;1.50;0.80;;;29.00;91.20;;;;;;4945096;28;20494;-80
2023/09/12 11:04:58;;;;;;;1.40;0.80;;;28.90;89.50;;;;;;4954248;28;20501;-80
2023/09/12 11:07:33;;;;;;;1.43;0.80;;;28.80;90.30;;;;;;4942628;28;20523;-80
2023/09/12 11:10:20;;;;;;;1.50;0.80;;;28.70;90.20;;;;;;4956689;28;20893;-80
2023/09/12 11:12:49;;;;;;;1.40;0.80;;;28.80;91.40;;;;;;4953200;28;20668;-79
2023/09/12 11:15:17;;;;;;;1.40;0.80;;;28.90;89.80;;;;;;4962375;28;20500;-79
2023/09/12 11:17:45;;;;;;;1.43;0.80;;;28.90;89.10;;;;;;4954422;28;20486;-81
2023/09/12 11:20:13;;;;;;;1.43;0.80;;;29.00;89.10;;;;;;4963301;28;20767;-79
2023/09/12 11:22:41;;;;;;;1.43;0.80;;;29.10;89.40;;;;;;4952983;28;20525;-81
2023/09/12 11:25:19;;;;;;;1.47;0.80;;;29.20;89.50;;;;;;4965983;28;20498;-79
2023/09/12 11:28:02;;;;;;;1.50;0.80;;;29.30;88.30;;;;;;4960499;28;20513;-80
2023/09/12 11:30:30;;;;;;;1.43;0.80;;;29.30;88.10;;;;;;4960314;28;21689;-78
2023/09/12 11:32:59;;;;;;;1.47;0.80;;;29.40;87.80;;;;;;4944288;28;20478;-79
2023/09/12 11:35:28;;;;;;;1.50;0.90;;;29.40;88.10;;;;;;4956005;28;20485;-80
2023/09/12 11:37:56;;;;;;;1.47;0.80;;;29.30;88.40;;;;;;4945845;28;20496;-80
2023/09/12 11:40:25;;;;;;;1.47;0.80;;;29.40;87.80;;;;;;4952801;28;20586;-80
2023/09/12 11:42:53;;;;;;;1.50;0.80;;;29.50;88.20;;;;;;4942706;28;20931;-79
2023/09/12 11:45:21;;;;;;;1.43;0.80;;;29.60;88.50;;;;;;4954487;28;20485;-79
2023/09/12 11:47:48;;;;;;;1.40;0.80;;;29.70;87.90;;;;;;4944573;28;20833;-82
2023/09/12 11:50:30;;;;;;;1.50;0.90;;;29.70;87.80;;;;;;4955245;28;20466;-82
2023/09/12 11:53:04;;;;;;;1.43;0.80;;;29.70;88.50;;;;;;4943832;28;20489;-79
2023/09/12 11:55:38;;;;;;;1.43;0.80;;;29.70;87.80;;;;;;4963483;28;20480;-80
2023/09/12 11:58:05;;;;;;;1.47;0.80;;;29.80;87.20;;;;;;4949586;28;20856;-80
2023/09/12 12:00:32;;;;;;;1.47;0.80;;;29.80;87.20;;;;;;4958394;28;20983;-78
2023/09/12 12:02:59;;;;;;;1.47;0.80;;;29.80;87.70;;;;;;4952382;28;20565;-81
2023/09/12 12:05:26;;;;;;;1.43;0.80;;;29.80;87.50;;;;;;4950974;28;20494;-81
2023/09/12 12:07:55;;;;;;;1.50;0.80;;;29.80;86.20;;;;;;4950014;28;20548;-81
2023/09/12 12:10:25;;;;;;;1.43;0.80;;;29.80;87.20;;;;;;4957560;28;20457;-81
2023/09/12 12:12:54;;;;;;;1.47;0.80;;;29.80;87.20;;;;;;4948497;28;20519;-81
2023/09/12 12:15:21;;;;;;;1.47;0.80;;;29.90;86.90;;;;;;4962237;28;20461;-81
2023/09/12 12:17:48;;;;;;;1.43;0.80;;;30.00;87.40;;;;;;4951171;28;21004;-80
2023/09/12 12:20:15;;;;;;;1.50;0.80;;;30.10;86.30;;;;;;4963348;28;20466;-79
2023/09/12 12:22:42;;;;;;;1.50;0.90;;;30.20;86.50;;;;;;4952956;28;20936;-80
2023/09/12 12:25:11;;;;;;;1.47;0.80;;;30.30;86.50;;;;;;4964268;28;20512;-80
2023/09/12 12:27:38;;;;;;;1.50;0.80;;;30.40;86.50;;;;;;4948115;28;20516;-80
2023/09/12 12:30:08;;;;;;;1.43;0.80;;;30.40;85.70;;;;;;4962208;28;20465;-81
2023/09/12 12:32:37;;;;;;;1.43;0.80;;;30.40;87.30;;;;;;4944962;28;20782;-79
2023/09/12 12:35:04;;;;;;;1.47;0.80;;;30.40;86.90;;;;;;4959966;28;20497;-79
2023/09/12 12:37:31;;;;;;;1.40;0.80;;;30.50;85.10;;;;;;4946185;28;20509;-78
2023/09/12 12:39:59;;;;;;;1.47;0.80;;;30.50;85.90;;;;;;4957056;28;20465;-80
2023/09/12 12:42:35;;;;;;;1.50;0.83;;;30.50;86.90;;;;;;4948879;28;20477;-79
2023/09/12 12:45:02;;;;;;;1.50;0.80;;;30.60;86.00;;;;;;4955115;28;20519;-78
2023/09/12 12:47:31;;;;;;;1.50;0.80;;;30.60;85.10;;;;;;4947295;28;20508;-79
2023/09/12 12:49:57;;;;;;;1.47;0.80;;;30.60;86.00;;;;;;4961348;28;20484;-80
2023/09/12 12:52:25;;;;;;;1.43;0.80;;;30.60;84.50;;;;;;4948720;28;20588;-80
2023/09/12 12:54:54;;;;;;;1.43;0.80;;;30.60;85.70;;;;;;4960015;28;20469;-81
2023/09/12 12:57:21;;;;;;;1.40;0.80;;;30.50;84.60;;;;;;4945686;28;20490;-78